sensor_id;sensor_type;location;lat;lon;timestamp;P1;durP1;ratioP1;P2;durP2;ratioP2
16705;SDS011;8469;60.136;15.180;2023-05-10T00:00:19;12.58;;;2.80;;
16705;SDS011;8469;60.136;15.180;2023-05-10T00:02:56;9.55;;;2.27;;
16705;SDS011;8469;60.136;15.180;2023-05-10T00:05:20;6.47;;;1.95;;
16705;SDS011;8469;60.136;15.180;2023-05-10T00:07:47;4.10;;;2.05;;
16705;SDS011;8469;60.136;15.180;2023-05-10T00:10:14;6.62;;;1.90;;
16705;SDS011;8469;60.136;15.180;2023-05-10T00:12:42;3.20;;;2.02;;
16705;SDS011;8469;60.136;15.180;2023-05-10T00:15:10;3.72;;;2.00;;
16705;SDS011;8469;60.136;15.180;2023-05-10T00:17:37;1.92;;;1.82;;
16705;SDS011;8469;60.136;15.180;2023-05-10T00:20:05;2.33;;;1.90;;
16705;SDS011;8469;60.136;15.180;2023-05-10T00:22:32;2.22;;;1.95;;
16705;SDS011;8469;60.136;15.180;2023-05-10T00:24:59;2.23;;;1.73;;
16705;SDS011;8469;60.136;15.180;2023-05-10T00:27:27;7.08;;;2.22;;
16705;SDS011;8469;60.136;15.180;2023-05-10T00:29:54;10.83;;;2.30;;
16705;SDS011;8469;60.136;15.180;2023-05-10T00:32:22;5.50;;;2.12;;
16705;SDS011;8469;60.136;15.180;2023-05-10T00:34:49;2.52;;;2.20;;
16705;SDS011;8469;60.136;15.180;2023-05-10T00:37:16;4.37;;;2.45;;
16705;SDS011;8469;60.136;15.180;2023-05-10T00:39:44;4.97;;;1.77;;
16705;SDS011;8469;60.136;15.180;2023-05-10T00:42:11;6.83;;;2.50;;
16705;SDS011;8469;60.136;15.180;2023-05-10T00:44:39;4.57;;;2.73;;
16705;SDS011;8469;60.136;15.180;2023-05-10T00:47:06;5.47;;;2.52;;
16705;SDS011;8469;60.136;15.180;2023-05-10T00:49:34;2.73;;;2.27;;
16705;SDS011;8469;60.136;15.180;2023-05-10T00:52:02;2.33;;;2.00;;
16705;SDS011;8469;60.136;15.180;2023-05-10T00:54:29;4.85;;;1.92;;
16705;SDS011;8469;60.136;15.180;2023-05-10T00:56:57;3.20;;;2.20;;
16705;SDS011;8469;60.136;15.180;2023-05-10T00:59:25;2.02;;;1.82;;
16705;SDS011;8469;60.136;15.180;2023-05-10T01:01:52;3.27;;;2.12;;
16705;SDS011;8469;60.136;15.180;2023-05-10T01:04:20;5.72;;;2.60;;
16705;SDS011;8469;60.136;15.180;2023-05-10T01:06:49;9.43;;;2.37;;
16705;SDS011;8469;60.136;15.180;2023-05-10T01:09:16;5.45;;;1.92;;
16705;SDS011;8469;60.136;15.180;2023-05-10T01:11:44;2.55;;;1.90;;
16705;SDS011;8469;60.136;15.180;2023-05-10T01:14:11;5.33;;;1.70;;
16705;SDS011;8469;60.136;15.180;2023-05-10T01:16:39;1.87;;;1.65;;
16705;SDS011;8469;60.136;15.180;2023-05-10T01:19:11;2.22;;;1.80;;
16705;SDS011;8469;60.136;15.180;2023-05-10T01:24:12;2.05;;;1.55;;
16705;SDS011;8469;60.136;15.180;2023-05-10T01:34:39;2.20;;;1.60;;
16705;SDS011;8469;60.136;15.180;2023-05-10T01:37:09;1.92;;;1.60;;
16705;SDS011;8469;60.136;15.180;2023-05-10T01:39:38;2.10;;;1.40;;
16705;SDS011;8469;60.136;15.180;2023-05-10T01:42:10;7.35;;;1.80;;
16705;SDS011;8469;60.136;15.180;2023-05-10T01:44:42;18.42;;;2.70;;
16705;SDS011;8469;60.136;15.180;2023-05-10T01:49:49;20.57;;;2.58;;
16705;SDS011;8469;60.136;15.180;2023-05-10T01:52:14;22.27;;;3.25;;
16705;SDS011;8469;60.136;15.180;2023-05-10T01:54:43;25.20;;;3.08;;
16705;SDS011;8469;60.136;15.180;2023-05-10T01:57:11;14.47;;;2.85;;
16705;SDS011;8469;60.136;15.180;2023-05-10T01:59:40;14.58;;;2.45;;
16705;SDS011;8469;60.136;15.180;2023-05-10T02:02:10;7.20;;;2.35;;
16705;SDS011;8469;60.136;15.180;2023-05-10T02:04:38;4.10;;;2.30;;
16705;SDS011;8469;60.136;15.180;2023-05-10T02:07:07;6.50;;;1.73;;
16705;SDS011;8469;60.136;15.180;2023-05-10T02:09:36;11.03;;;1.90;;
16705;SDS011;8469;60.136;15.180;2023-05-10T02:12:04;6.03;;;1.90;;
16705;SDS011;8469;60.136;15.180;2023-05-10T02:14:35;1.97;;;1.70;;
16705;SDS011;8469;60.136;15.180;2023-05-10T02:17:04;1.90;;;1.70;;
16705;SDS011;8469;60.136;15.180;2023-05-10T02:19:32;5.22;;;1.65;;
16705;SDS011;8469;60.136;15.180;2023-05-10T02:21:59;5.65;;;2.10;;
16705;SDS011;8469;60.136;15.180;2023-05-10T02:24:28;4.37;;;1.70;;
16705;SDS011;8469;60.136;15.180;2023-05-10T02:26:56;3.15;;;2.05;;
16705;SDS011;8469;60.136;15.180;2023-05-10T02:29:24;4.58;;;1.80;;
16705;SDS011;8469;60.136;15.180;2023-05-10T02:31:53;3.02;;;1.70;;
16705;SDS011;8469;60.136;15.180;2023-05-10T02:34:21;4.28;;;1.80;;
16705;SDS011;8469;60.136;15.180;2023-05-10T02:36:49;3.93;;;1.90;;
16705;SDS011;8469;60.136;15.180;2023-05-10T02:39:18;3.10;;;1.82;;
16705;SDS011;8469;60.136;15.180;2023-05-10T02:41:46;1.75;;;1.62;;
16705;SDS011;8469;60.136;15.180;2023-05-10T02:44:15;3.65;;;1.90;;
16705;SDS011;8469;60.136;15.180;2023-05-10T02:46:43;2.85;;;1.82;;
16705;SDS011;8469;60.136;15.180;2023-05-10T02:49:11;2.10;;;1.90;;
16705;SDS011;8469;60.136;15.180;2023-05-10T02:51:44;5.72;;;1.72;;
16705;SDS011;8469;60.136;15.180;2023-05-10T02:54:10;2.22;;;1.70;;
16705;SDS011;8469;60.136;15.180;2023-05-10T02:56:47;4.42;;;2.20;;
16705;SDS011;8469;60.136;15.180;2023-05-10T02:59:12;2.25;;;1.67;;
16705;SDS011;8469;60.136;15.180;2023-05-10T03:01:41;2.80;;;1.80;;
16705;SDS011;8469;60.136;15.180;2023-05-10T03:04:08;2.27;;;1.70;;
16705;SDS011;8469;60.136;15.180;2023-05-10T03:06:35;4.92;;;1.80;;
16705;SDS011;8469;60.136;15.180;2023-05-10T03:09:02;2.40;;;2.20;;
16705;SDS011;8469;60.136;15.180;2023-05-10T03:11:34;3.40;;;1.87;;
16705;SDS011;8469;60.136;15.180;2023-05-10T03:16:29;3.77;;;1.90;;
16705;SDS011;8469;60.136;15.180;2023-05-10T03:19:17;2.92;;;2.00;;
16705;SDS011;8469;60.136;15.180;2023-05-10T03:21:29;4.07;;;2.00;;
16705;SDS011;8469;60.136;15.180;2023-05-10T03:24:04;4.90;;;2.05;;
16705;SDS011;8469;60.136;15.180;2023-05-10T03:26:28;7.47;;;2.00;;
16705;SDS011;8469;60.136;15.180;2023-05-10T03:28:56;2.95;;;1.90;;
16705;SDS011;8469;60.136;15.180;2023-05-10T03:31:25;2.30;;;1.85;;
16705;SDS011;8469;60.136;15.180;2023-05-10T03:33:53;3.98;;;2.00;;
16705;SDS011;8469;60.136;15.180;2023-05-10T03:36:20;3.25;;;2.08;;
16705;SDS011;8469;60.136;15.180;2023-05-10T03:38:49;3.20;;;2.17;;
16705;SDS011;8469;60.136;15.180;2023-05-10T03:41:16;4.83;;;2.10;;
16705;SDS011;8469;60.136;15.180;2023-05-10T03:43:43;11.00;;;2.40;;
16705;SDS011;8469;60.136;15.180;2023-05-10T03:46:11;10.93;;;2.37;;
16705;SDS011;8469;60.136;15.180;2023-05-10T03:48:39;3.92;;;2.08;;
16705;SDS011;8469;60.136;15.180;2023-05-10T03:51:06;5.08;;;2.40;;
16705;SDS011;8469;60.136;15.180;2023-05-10T03:53:33;4.75;;;2.25;;
16705;SDS011;8469;60.136;15.180;2023-05-10T03:56:01;7.00;;;2.00;;
16705;SDS011;8469;60.136;15.180;2023-05-10T03:58:29;2.72;;;2.12;;
16705;SDS011;8469;60.136;15.180;2023-05-10T04:00:56;6.47;;;2.50;;
16705;SDS011;8469;60.136;15.180;2023-05-10T04:03:23;5.70;;;2.20;;
16705;SDS011;8469;60.136;15.180;2023-05-10T04:05:58;7.25;;;2.35;;
16705;SDS011;8469;60.136;15.180;2023-05-10T04:08:27;4.08;;;2.20;;
16705;SDS011;8469;60.136;15.180;2023-05-10T04:11:04;10.40;;;2.40;;
16705;SDS011;8469;60.136;15.180;2023-05-10T04:13:24;7.33;;;2.05;;
16705;SDS011;8469;60.136;15.180;2023-05-10T04:15:51;8.50;;;2.60;;
16705;SDS011;8469;60.136;15.180;2023-05-10T04:18:18;10.55;;;2.75;;
16705;SDS011;8469;60.136;15.180;2023-05-10T04:20:46;5.50;;;2.30;;
16705;SDS011;8469;60.136;15.180;2023-05-10T04:23:12;7.65;;;2.10;;
16705;SDS011;8469;60.136;15.180;2023-05-10T04:25:42;6.28;;;2.10;;
16705;SDS011;8469;60.136;15.180;2023-05-10T04:28:10;3.00;;;2.22;;
16705;SDS011;8469;60.136;15.180;2023-05-10T04:30:37;4.78;;;2.45;;
16705;SDS011;8469;60.136;15.180;2023-05-10T04:33:04;5.95;;;2.35;;
16705;SDS011;8469;60.136;15.180;2023-05-10T04:35:32;15.60;;;2.70;;
16705;SDS011;8469;60.136;15.180;2023-05-10T04:38:02;6.47;;;2.42;;
16705;SDS011;8469;60.136;15.180;2023-05-10T04:40:29;5.78;;;2.35;;
16705;SDS011;8469;60.136;15.180;2023-05-10T04:42:57;4.92;;;2.08;;
16705;SDS011;8469;60.136;15.180;2023-05-10T04:45:24;3.77;;;2.15;;
16705;SDS011;8469;60.136;15.180;2023-05-10T04:47:51;20.95;;;2.58;;
16705;SDS011;8469;60.136;15.180;2023-05-10T04:50:19;6.97;;;2.30;;
16705;SDS011;8469;60.136;15.180;2023-05-10T04:52:46;8.83;;;2.70;;
16705;SDS011;8469;60.136;15.180;2023-05-10T04:55:16;8.97;;;2.60;;
16705;SDS011;8469;60.136;15.180;2023-05-10T04:57:44;11.40;;;2.65;;
16705;SDS011;8469;60.136;15.180;2023-05-10T05:00:16;13.28;;;2.50;;
16705;SDS011;8469;60.136;15.180;2023-05-10T05:02:42;3.77;;;2.37;;
16705;SDS011;8469;60.136;15.180;2023-05-10T05:05:11;4.15;;;2.10;;
16705;SDS011;8469;60.136;15.180;2023-05-10T05:07:39;7.53;;;2.77;;
16705;SDS011;8469;60.136;15.180;2023-05-10T05:10:06;3.87;;;2.20;;
16705;SDS011;8469;60.136;15.180;2023-05-10T05:12:34;4.83;;;2.20;;
16705;SDS011;8469;60.136;15.180;2023-05-10T05:15:02;7.47;;;2.20;;
16705;SDS011;8469;60.136;15.180;2023-05-10T05:17:32;15.55;;;2.72;;
16705;SDS011;8469;60.136;15.180;2023-05-10T05:19:59;7.80;;;2.37;;
16705;SDS011;8469;60.136;15.180;2023-05-10T05:22:27;12.60;;;2.23;;
16705;SDS011;8469;60.136;15.180;2023-05-10T05:24:54;4.83;;;2.20;;
16705;SDS011;8469;60.136;15.180;2023-05-10T05:27:27;7.60;;;2.40;;
16705;SDS011;8469;60.136;15.180;2023-05-10T05:29:57;10.72;;;2.58;;
16705;SDS011;8469;60.136;15.180;2023-05-10T05:32:21;9.30;;;2.87;;
16705;SDS011;8469;60.136;15.180;2023-05-10T05:34:53;13.48;;;2.67;;
16705;SDS011;8469;60.136;15.180;2023-05-10T05:37:19;8.53;;;2.53;;
16705;SDS011;8469;60.136;15.180;2023-05-10T05:39:47;8.60;;;2.50;;
16705;SDS011;8469;60.136;15.180;2023-05-10T05:42:15;9.10;;;2.50;;
16705;SDS011;8469;60.136;15.180;2023-05-10T05:44:43;13.58;;;2.65;;
16705;SDS011;8469;60.136;15.180;2023-05-10T05:47:11;8.43;;;2.42;;
16705;SDS011;8469;60.136;15.180;2023-05-10T05:49:38;4.80;;;2.35;;
16705;SDS011;8469;60.136;15.180;2023-05-10T05:52:06;7.25;;;2.50;;
16705;SDS011;8469;60.136;15.180;2023-05-10T05:54:33;22.50;;;3.23;;
16705;SDS011;8469;60.136;15.180;2023-05-10T05:57:00;2.80;;;2.05;;
16705;SDS011;8469;60.136;15.180;2023-05-10T05:59:28;8.93;;;2.70;;
16705;SDS011;8469;60.136;15.180;2023-05-10T06:01:55;9.18;;;2.50;;
16705;SDS011;8469;60.136;15.180;2023-05-10T06:04:22;9.15;;;2.00;;
16705;SDS011;8469;60.136;15.180;2023-05-10T06:06:50;10.00;;;2.42;;
16705;SDS011;8469;60.136;15.180;2023-05-10T06:09:20;29.25;;;3.02;;
16705;SDS011;8469;60.136;15.180;2023-05-10T06:11:47;30.10;;;3.42;;
16705;SDS011;8469;60.136;15.180;2023-05-10T06:14:14;8.30;;;2.85;;
16705;SDS011;8469;60.136;15.180;2023-05-10T06:16:43;12.55;;;2.58;;
16705;SDS011;8469;60.136;15.180;2023-05-10T06:19:11;4.12;;;2.15;;
16705;SDS011;8469;60.136;15.180;2023-05-10T06:21:38;13.17;;;2.70;;
16705;SDS011;8469;60.136;15.180;2023-05-10T06:24:05;9.68;;;2.60;;
16705;SDS011;8469;60.136;15.180;2023-05-10T06:26:33;9.30;;;2.70;;
16705;SDS011;8469;60.136;15.180;2023-05-10T06:29:00;8.08;;;2.77;;
16705;SDS011;8469;60.136;15.180;2023-05-10T06:31:27;16.45;;;3.08;;
16705;SDS011;8469;60.136;15.180;2023-05-10T06:33:55;8.90;;;2.43;;
16705;SDS011;8469;60.136;15.180;2023-05-10T06:36:22;6.33;;;2.30;;
16705;SDS011;8469;60.136;15.180;2023-05-10T06:38:51;8.63;;;2.60;;
16705;SDS011;8469;60.136;15.180;2023-05-10T06:41:18;11.18;;;2.65;;
16705;SDS011;8469;60.136;15.180;2023-05-10T06:43:47;8.20;;;2.60;;
16705;SDS011;8469;60.136;15.180;2023-05-10T06:46:14;5.00;;;2.47;;
16705;SDS011;8469;60.136;15.180;2023-05-10T06:48:42;10.85;;;2.80;;
16705;SDS011;8469;60.136;15.180;2023-05-10T06:51:09;15.80;;;2.90;;
16705;SDS011;8469;60.136;15.180;2023-05-10T06:53:37;4.28;;;2.55;;
16705;SDS011;8469;60.136;15.180;2023-05-10T06:56:04;5.28;;;2.35;;
16705;SDS011;8469;60.136;15.180;2023-05-10T06:58:31;7.53;;;2.40;;
16705;SDS011;8469;60.136;15.180;2023-05-10T07:01:02;7.53;;;2.27;;
16705;SDS011;8469;60.136;15.180;2023-05-10T07:03:30;7.17;;;2.70;;
16705;SDS011;8469;60.136;15.180;2023-05-10T07:06:00;4.20;;;2.30;;
16705;SDS011;8469;60.136;15.180;2023-05-10T07:08:32;4.40;;;2.60;;
16705;SDS011;8469;60.136;15.180;2023-05-10T07:11:00;6.28;;;2.50;;
16705;SDS011;8469;60.136;15.180;2023-05-10T07:13:27;5.40;;;2.12;;
16705;SDS011;8469;60.136;15.180;2023-05-10T07:15:55;8.25;;;2.30;;
16705;SDS011;8469;60.136;15.180;2023-05-10T07:18:22;5.62;;;2.33;;
16705;SDS011;8469;60.136;15.180;2023-05-10T07:20:49;13.48;;;2.72;;
16705;SDS011;8469;60.136;15.180;2023-05-10T07:23:17;4.70;;;2.30;;
16705;SDS011;8469;60.136;15.180;2023-05-10T07:25:49;10.93;;;2.90;;
16705;SDS011;8469;60.136;15.180;2023-05-10T07:28:13;7.60;;;2.20;;
16705;SDS011;8469;60.136;15.180;2023-05-10T07:30:42;5.22;;;2.35;;
16705;SDS011;8469;60.136;15.180;2023-05-10T07:33:10;4.87;;;2.62;;
16705;SDS011;8469;60.136;15.180;2023-05-10T07:35:38;7.17;;;2.67;;
16705;SDS011;8469;60.136;15.180;2023-05-10T07:38:05;7.53;;;2.30;;
16705;SDS011;8469;60.136;15.180;2023-05-10T07:40:32;3.12;;;2.42;;
16705;SDS011;8469;60.136;15.180;2023-05-10T07:43:00;10.13;;;2.45;;
16705;SDS011;8469;60.136;15.180;2023-05-10T07:45:28;4.70;;;2.40;;
16705;SDS011;8469;60.136;15.180;2023-05-10T07:47:55;5.78;;;2.20;;
16705;SDS011;8469;60.136;15.180;2023-05-10T07:50:22;4.87;;;2.30;;
16705;SDS011;8469;60.136;15.180;2023-05-10T07:52:50;4.45;;;2.40;;
16705;SDS011;8469;60.136;15.180;2023-05-10T07:55:18;7.30;;;3.00;;
16705;SDS011;8469;60.136;15.180;2023-05-10T07:57:45;5.42;;;2.50;;
16705;SDS011;8469;60.136;15.180;2023-05-10T08:00:12;7.53;;;2.58;;
16705;SDS011;8469;60.136;15.180;2023-05-10T08:02:40;6.65;;;2.45;;
16705;SDS011;8469;60.136;15.180;2023-05-10T08:05:08;22.77;;;3.90;;
16705;SDS011;8469;60.136;15.180;2023-05-10T08:07:35;7.05;;;2.60;;
16705;SDS011;8469;60.136;15.180;2023-05-10T08:10:03;5.35;;;2.33;;
16705;SDS011;8469;60.136;15.180;2023-05-10T08:12:30;5.22;;;2.20;;
16705;SDS011;8469;60.136;15.180;2023-05-10T08:14:58;11.85;;;2.72;;
16705;SDS011;8469;60.136;15.180;2023-05-10T08:17:25;10.18;;;2.70;;
16705;SDS011;8469;60.136;15.180;2023-05-10T08:19:52;9.30;;;2.80;;
16705;SDS011;8469;60.136;15.180;2023-05-10T08:22:20;5.83;;;2.65;;
16705;SDS011;8469;60.136;15.180;2023-05-10T08:24:47;7.90;;;2.90;;
16705;SDS011;8469;60.136;15.180;2023-05-10T08:27:15;6.72;;;3.67;;
16705;SDS011;8469;60.136;15.180;2023-05-10T08:29:42;18.97;;;3.20;;
16705;SDS011;8469;60.136;15.180;2023-05-10T08:32:09;10.88;;;3.47;;
16705;SDS011;8469;60.136;15.180;2023-05-10T08:34:37;9.00;;;3.47;;
16705;SDS011;8469;60.136;15.180;2023-05-10T08:37:04;5.10;;;3.30;;
16705;SDS011;8469;60.136;15.180;2023-05-10T08:39:34;10.05;;;3.17;;
16705;SDS011;8469;60.136;15.180;2023-05-10T08:42:01;11.85;;;3.22;;
16705;SDS011;8469;60.136;15.180;2023-05-10T08:44:30;7.90;;;3.10;;
16705;SDS011;8469;60.136;15.180;2023-05-10T08:46:57;12.25;;;3.20;;
16705;SDS011;8469;60.136;15.180;2023-05-10T08:49:30;5.50;;;2.80;;
16705;SDS011;8469;60.136;15.180;2023-05-10T08:52:00;9.68;;;2.80;;
16705;SDS011;8469;60.136;15.180;2023-05-10T08:57:27;6.72;;;3.00;;
16705;SDS011;8469;60.136;15.180;2023-05-10T08:59:55;4.37;;;2.90;;
16705;SDS011;8469;60.136;15.180;2023-05-10T09:02:22;5.45;;;3.10;;
16705;SDS011;8469;60.136;15.180;2023-05-10T09:04:50;6.37;;;3.10;;
16705;SDS011;8469;60.136;15.180;2023-05-10T09:07:19;10.75;;;3.22;;
16705;SDS011;8469;60.136;15.180;2023-05-10T09:09:48;7.87;;;3.20;;
16705;SDS011;8469;60.136;15.180;2023-05-10T09:12:16;14.63;;;3.05;;
16705;SDS011;8469;60.136;15.180;2023-05-10T09:14:43;6.07;;;3.30;;
16705;SDS011;8469;60.136;15.180;2023-05-10T09:17:11;9.60;;;2.53;;
16705;SDS011;8469;60.136;15.180;2023-05-10T09:19:38;3.47;;;2.50;;
16705;SDS011;8469;60.136;15.180;2023-05-10T09:22:06;29.95;;;3.42;;
16705;SDS011;8469;60.136;15.180;2023-05-10T09:24:33;6.60;;;2.50;;
16705;SDS011;8469;60.136;15.180;2023-05-10T09:27:01;3.43;;;2.70;;
16705;SDS011;8469;60.136;15.180;2023-05-10T09:29:38;2.80;;;2.50;;
16705;SDS011;8469;60.136;15.180;2023-05-10T09:31:57;7.40;;;2.42;;
16705;SDS011;8469;60.136;15.180;2023-05-10T09:34:29;10.75;;;2.85;;
16705;SDS011;8469;60.136;15.180;2023-05-10T09:36:56;8.70;;;2.62;;
16705;SDS011;8469;60.136;15.180;2023-05-10T09:39:34;9.48;;;2.70;;
16705;SDS011;8469;60.136;15.180;2023-05-10T09:42:06;7.35;;;2.80;;
16705;SDS011;8469;60.136;15.180;2023-05-10T09:44:34;9.60;;;2.85;;
16705;SDS011;8469;60.136;15.180;2023-05-10T09:47:01;4.87;;;2.75;;
16705;SDS011;8469;60.136;15.180;2023-05-10T09:49:32;8.58;;;2.75;;
16705;SDS011;8469;60.136;15.180;2023-05-10T09:52:00;6.87;;;2.65;;
16705;SDS011;8469;60.136;15.180;2023-05-10T09:54:34;5.00;;;2.70;;
16705;SDS011;8469;60.136;15.180;2023-05-10T09:56:57;18.27;;;3.30;;
16705;SDS011;8469;60.136;15.180;2023-05-10T09:59:25;6.62;;;2.55;;
16705;SDS011;8469;60.136;15.180;2023-05-10T10:01:59;6.05;;;2.42;;
16705;SDS011;8469;60.136;15.180;2023-05-10T10:04:23;7.83;;;2.60;;
16705;SDS011;8469;60.136;15.180;2023-05-10T10:07:00;3.12;;;2.58;;
16705;SDS011;8469;60.136;15.180;2023-05-10T10:09:28;9.28;;;2.85;;
16705;SDS011;8469;60.136;15.180;2023-05-10T10:11:56;8.75;;;2.70;;
16705;SDS011;8469;60.136;15.180;2023-05-10T10:14:23;13.20;;;2.98;;
16705;SDS011;8469;60.136;15.180;2023-05-10T10:16:50;4.58;;;2.40;;
16705;SDS011;8469;60.136;15.180;2023-05-10T10:19:19;3.70;;;2.30;;
16705;SDS011;8469;60.136;15.180;2023-05-10T10:21:47;7.20;;;2.50;;
16705;SDS011;8469;60.136;15.180;2023-05-10T10:24:15;6.60;;;2.45;;
16705;SDS011;8469;60.136;15.180;2023-05-10T10:26:48;5.37;;;2.40;;
16705;SDS011;8469;60.136;15.180;2023-05-10T10:29:23;2.75;;;2.52;;
16705;SDS011;8469;60.136;15.180;2023-05-10T10:34:26;5.45;;;2.20;;
16705;SDS011;8469;60.136;15.180;2023-05-10T10:36:57;7.53;;;2.58;;
16705;SDS011;8469;60.136;15.180;2023-05-10T10:39:25;3.98;;;2.20;;
16705;SDS011;8469;60.136;15.180;2023-05-10T10:41:53;7.03;;;2.60;;
16705;SDS011;8469;60.136;15.180;2023-05-10T10:47:05;5.12;;;2.50;;
16705;SDS011;8469;60.136;15.180;2023-05-10T10:49:38;7.28;;;2.30;;
16705;SDS011;8469;60.136;15.180;2023-05-10T10:52:25;3.80;;;2.25;;
16705;SDS011;8469;60.136;15.180;2023-05-10T10:57:46;6.60;;;2.27;;
16705;SDS011;8469;60.136;15.180;2023-05-10T11:00:24;10.08;;;2.87;;
16705;SDS011;8469;60.136;15.180;2023-05-10T11:02:53;7.70;;;2.22;;
16705;SDS011;8469;60.136;15.180;2023-05-10T11:05:40;2.92;;;2.00;;
16705;SDS011;8469;60.136;15.180;2023-05-10T11:07:53;6.33;;;2.40;;
16705;SDS011;8469;60.136;15.180;2023-05-10T11:10:22;5.60;;;2.62;;
16705;SDS011;8469;60.136;15.180;2023-05-10T11:13:08;3.45;;;1.98;;
16705;SDS011;8469;60.136;15.180;2023-05-10T11:15:36;9.40;;;2.40;;
16705;SDS011;8469;60.136;15.180;2023-05-10T11:18:18;10.23;;;2.50;;
16705;SDS011;8469;60.136;15.180;2023-05-10T11:20:50;8.40;;;2.33;;
16705;SDS011;8469;60.136;15.180;2023-05-10T11:23:18;6.55;;;2.62;;
16705;SDS011;8469;60.136;15.180;2023-05-10T11:25:47;10.38;;;2.37;;
16705;SDS011;8469;60.136;15.180;2023-05-10T11:28:16;2.47;;;2.00;;
16705;SDS011;8469;60.136;15.180;2023-05-10T11:30:44;2.80;;;2.15;;
16705;SDS011;8469;60.136;15.180;2023-05-10T11:33:16;4.05;;;2.15;;
16705;SDS011;8469;60.136;15.180;2023-05-10T11:35:43;10.10;;;2.10;;
16705;SDS011;8469;60.136;15.180;2023-05-10T11:38:12;4.33;;;2.17;;
16705;SDS011;8469;60.136;15.180;2023-05-10T11:40:39;4.55;;;2.30;;
16705;SDS011;8469;60.136;15.180;2023-05-10T11:43:08;4.72;;;2.30;;
16705;SDS011;8469;60.136;15.180;2023-05-10T11:45:36;11.95;;;2.40;;
16705;SDS011;8469;60.136;15.180;2023-05-10T11:48:04;4.78;;;2.30;;
16705;SDS011;8469;60.136;15.180;2023-05-10T11:50:31;4.97;;;2.13;;
16705;SDS011;8469;60.136;15.180;2023-05-10T11:52:59;5.80;;;2.25;;
16705;SDS011;8469;60.136;15.180;2023-05-10T11:55:26;4.30;;;2.12;;
16705;SDS011;8469;60.136;15.180;2023-05-10T11:57:54;4.78;;;2.10;;
16705;SDS011;8469;60.136;15.180;2023-05-10T12:00:21;7.05;;;2.20;;
16705;SDS011;8469;60.136;15.180;2023-05-10T12:02:49;3.40;;;2.02;;
16705;SDS011;8469;60.136;15.180;2023-05-10T12:05:16;4.08;;;2.40;;
16705;SDS011;8469;60.136;15.180;2023-05-10T12:07:43;6.25;;;2.50;;
16705;SDS011;8469;60.136;15.180;2023-05-10T12:10:11;4.53;;;1.90;;
16705;SDS011;8469;60.136;15.180;2023-05-10T12:12:44;4.37;;;2.40;;
16705;SDS011;8469;60.136;15.180;2023-05-10T12:15:17;4.83;;;2.30;;
16705;SDS011;8469;60.136;15.180;2023-05-10T12:17:45;4.47;;;2.15;;
16705;SDS011;8469;60.136;15.180;2023-05-10T12:20:17;2.35;;;1.87;;
16705;SDS011;8469;60.136;15.180;2023-05-10T12:22:52;9.60;;;2.30;;
16705;SDS011;8469;60.136;15.180;2023-05-10T12:25:20;4.03;;;2.08;;
16705;SDS011;8469;60.136;15.180;2023-05-10T12:27:49;5.62;;;2.30;;
16705;SDS011;8469;60.136;15.180;2023-05-10T12:30:35;4.78;;;2.08;;
16705;SDS011;8469;60.136;15.180;2023-05-10T12:32:51;10.95;;;2.40;;
16705;SDS011;8469;60.136;15.180;2023-05-10T12:35:19;3.77;;;1.80;;
16705;SDS011;8469;60.136;15.180;2023-05-10T12:37:50;5.80;;;2.50;;
16705;SDS011;8469;60.136;15.180;2023-05-10T12:40:18;2.85;;;1.90;;
16705;SDS011;8469;60.136;15.180;2023-05-10T12:42:45;10.28;;;1.95;;
16705;SDS011;8469;60.136;15.180;2023-05-10T12:45:13;2.08;;;1.87;;
16705;SDS011;8469;60.136;15.180;2023-05-10T12:47:40;13.35;;;2.95;;
16705;SDS011;8469;60.136;15.180;2023-05-10T12:50:08;9.00;;;2.33;;
16705;SDS011;8469;60.136;15.180;2023-05-10T12:52:35;5.45;;;1.98;;
16705;SDS011;8469;60.136;15.180;2023-05-10T12:55:06;6.20;;;1.87;;
16705;SDS011;8469;60.136;15.180;2023-05-10T12:57:33;2.52;;;1.87;;
16705;SDS011;8469;60.136;15.180;2023-05-10T13:00:00;3.60;;;2.00;;
16705;SDS011;8469;60.136;15.180;2023-05-10T13:02:28;4.15;;;2.10;;
16705;SDS011;8469;60.136;15.180;2023-05-10T13:04:56;3.15;;;2.05;;
16705;SDS011;8469;60.136;15.180;2023-05-10T13:07:23;6.15;;;2.00;;
16705;SDS011;8469;60.136;15.180;2023-05-10T13:09:50;4.42;;;1.95;;
16705;SDS011;8469;60.136;15.180;2023-05-10T13:12:18;3.65;;;1.90;;
16705;SDS011;8469;60.136;15.180;2023-05-10T13:14:45;7.42;;;1.87;;
16705;SDS011;8469;60.136;15.180;2023-05-10T13:17:12;4.83;;;2.10;;
16705;SDS011;8469;60.136;15.180;2023-05-10T13:19:40;2.40;;;1.98;;
16705;SDS011;8469;60.136;15.180;2023-05-10T13:22:07;6.87;;;2.40;;
16705;SDS011;8469;60.136;15.180;2023-05-10T13:24:34;5.43;;;2.30;;
16705;SDS011;8469;60.136;15.180;2023-05-10T13:27:02;5.70;;;2.30;;
16705;SDS011;8469;60.136;15.180;2023-05-10T13:29:29;7.10;;;2.15;;
16705;SDS011;8469;60.136;15.180;2023-05-10T13:31:56;20.52;;;2.67;;
16705;SDS011;8469;60.136;15.180;2023-05-10T13:34:24;8.83;;;2.17;;
16705;SDS011;8469;60.136;15.180;2023-05-10T13:36:51;5.73;;;1.97;;
16705;SDS011;8469;60.136;15.180;2023-05-10T13:39:20;17.60;;;2.98;;
16705;SDS011;8469;60.136;15.180;2023-05-10T13:41:47;5.85;;;2.35;;
16705;SDS011;8469;60.136;15.180;2023-05-10T13:44:15;2.57;;;2.20;;
16705;SDS011;8469;60.136;15.180;2023-05-10T13:46:42;2.33;;;2.10;;
16705;SDS011;8469;60.136;15.180;2023-05-10T13:49:09;3.85;;;2.10;;
16705;SDS011;8469;60.136;15.180;2023-05-10T13:51:37;4.08;;;2.05;;
16705;SDS011;8469;60.136;15.180;2023-05-10T13:54:04;6.90;;;2.25;;
16705;SDS011;8469;60.136;15.180;2023-05-10T13:56:32;3.42;;;2.10;;
16705;SDS011;8469;60.136;15.180;2023-05-10T13:58:59;4.75;;;2.00;;
16705;SDS011;8469;60.136;15.180;2023-05-10T14:01:27;3.33;;;2.23;;
16705;SDS011;8469;60.136;15.180;2023-05-10T14:03:54;5.45;;;2.20;;
16705;SDS011;8469;60.136;15.180;2023-05-10T14:06:21;4.10;;;2.00;;
16705;SDS011;8469;60.136;15.180;2023-05-10T14:08:49;3.25;;;2.20;;
16705;SDS011;8469;60.136;15.180;2023-05-10T14:11:16;2.80;;;2.17;;
16705;SDS011;8469;60.136;15.180;2023-05-10T14:13:43;2.90;;;1.98;;
16705;SDS011;8469;60.136;15.180;2023-05-10T14:16:11;2.52;;;2.00;;
16705;SDS011;8469;60.136;15.180;2023-05-10T14:18:39;9.58;;;2.17;;
16705;SDS011;8469;60.136;15.180;2023-05-10T14:21:06;10.82;;;2.35;;
16705;SDS011;8469;60.136;15.180;2023-05-10T14:23:34;4.73;;;2.10;;
16705;SDS011;8469;60.136;15.180;2023-05-10T14:26:01;7.35;;;2.77;;
16705;SDS011;8469;60.136;15.180;2023-05-10T14:28:29;23.57;;;2.90;;
16705;SDS011;8469;60.136;15.180;2023-05-10T14:30:56;7.75;;;2.27;;
16705;SDS011;8469;60.136;15.180;2023-05-10T14:33:24;7.80;;;2.40;;
16705;SDS011;8469;60.136;15.180;2023-05-10T14:35:53;7.83;;;2.12;;
16705;SDS011;8469;60.136;15.180;2023-05-10T14:38:22;7.20;;;2.17;;
16705;SDS011;8469;60.136;15.180;2023-05-10T14:40:50;3.42;;;2.20;;
16705;SDS011;8469;60.136;15.180;2023-05-10T14:43:17;13.58;;;2.55;;
16705;SDS011;8469;60.136;15.180;2023-05-10T14:45:44;5.28;;;1.98;;
16705;SDS011;8469;60.136;15.180;2023-05-10T14:48:12;5.62;;;2.30;;
16705;SDS011;8469;60.136;15.180;2023-05-10T14:50:41;17.30;;;2.80;;
16705;SDS011;8469;60.136;15.180;2023-05-10T14:53:09;8.43;;;2.13;;
16705;SDS011;8469;60.136;15.180;2023-05-10T14:55:36;6.25;;;1.90;;
16705;SDS011;8469;60.136;15.180;2023-05-10T14:58:04;5.47;;;1.80;;
16705;SDS011;8469;60.136;15.180;2023-05-10T15:00:33;4.33;;;1.72;;
16705;SDS011;8469;60.136;15.180;2023-05-10T15:03:01;7.05;;;2.08;;
16705;SDS011;8469;60.136;15.180;2023-05-10T15:05:28;3.02;;;2.08;;
16705;SDS011;8469;60.136;15.180;2023-05-10T15:07:56;9.50;;;2.05;;
16705;SDS011;8469;60.136;15.180;2023-05-10T15:10:23;4.37;;;2.12;;
16705;SDS011;8469;60.136;15.180;2023-05-10T15:12:51;5.75;;;2.12;;
16705;SDS011;8469;60.136;15.180;2023-05-10T15:15:18;3.08;;;2.10;;
16705;SDS011;8469;60.136;15.180;2023-05-10T15:17:50;3.25;;;2.00;;